Overview Statistics Trail Chart Weather Telemetry Raw packets
 

This is the latest recevied weather packets stored in our database for station/object WY7ATH-2. If no packets are shown the sender has not sent any weather packets the latest 10 day(s).

<< 24 25 26 27 28 29 30 >>
Time Temp. Humidity Pressure Rain* Wind** Luminosity Snow
1787999961 18.33° C - - 0 mm 0.45 m/s, 236° - -
1787999365 18.33° C - - 0 mm 1.34 m/s, 259° - -
1787998768 18.89° C - - 0 mm 1.34 m/s, 249° - -
1787998171 18.33° C - - 0 mm 2.68 m/s, 291° - -
1787997570 18.33° C - - 0 mm 0.45 m/s, 277° - -
1787996972 17.78° C - - 0 mm 0 m/s - -
1787996375 18.33° C - - 0 mm 1.79 m/s, 143° - -
1787994584 17.22° C - - 0 mm 0.45 m/s, 217° - -
1787993386 17.22° C - - 0 mm 2.68 m/s, 217° - -
1787992192 16.11° C - - 0 mm 3.58 m/s, 212° - -
1787990998 16.67° C - - 0 mm 3.13 m/s, 232° - -
1787989203 16.67° C - - 0 mm 0.89 m/s, 259° - -
1787988606 15° C - - 0 mm 0 m/s - -
1787987412 16.67° C - - 0 mm 1.79 m/s, 217° - -
1787986215 18.33° C - - 0 mm 1.34 m/s, 194° - -
1787984424 20° C - - 0 mm 4.47 m/s, 285° - -
1787983225 20° C - - 0 mm 6.71 m/s, 225° - -
1787982031 20.56° C - - 0 mm 7.6 m/s, 239° - -
1787981434 20° C - - 0 mm 7.15 m/s, 250° - -
1787980240 18.89° C - - 0 mm 0 m/s - -
1787979640 18.89° C - - 0 mm 0 m/s - -
1787978447 17.78° C - - 0 mm 0.89 m/s, 239° - -
1787976054 18.33° C - - 0 mm 0 m/s - -
1787975457 18.33° C - - 0 mm 0 m/s - -
1787974263 18.33° C - - 0 mm 0 m/s - -

* Rain latest hour (hover to see other rain measurements)
** Current wind speed in m/s (hover to see current wind gust speed)